sensor_id;sensor_type;location;lat;lon;timestamp;pressure;altitude;pressure_sealevel;temperature;humidity
49973;BME280;65693;49.798;10.968;2023-01-16T00:01:00;96879.56;;;9.02;100.00
49973;BME280;65693;49.798;10.968;2023-01-16T00:03:27;96879.28;;;9.04;100.00
49973;BME280;65693;49.798;10.968;2023-01-16T00:05:53;96884.09;;;9.02;100.00
49973;BME280;65693;49.798;10.968;2023-01-16T00:08:20;96883.28;;;9.01;100.00
49973;BME280;65693;49.798;10.968;2023-01-16T00:10:46;96868.19;;;9.02;100.00
49973;BME280;65693;49.798;10.968;2023-01-16T00:13:13;96862.38;;;9.00;100.00
49973;BME280;65693;49.798;10.968;2023-01-16T00:15:45;96867.09;;;9.03;100.00
49973;BME280;65693;49.798;10.968;2023-01-16T00:18:11;96860.53;;;9.00;100.00
49973;BME280;65693;49.798;10.968;2023-01-16T00:20:38;96849.38;;;8.98;100.00
49973;BME280;65693;49.798;10.968;2023-01-16T00:23:04;96844.38;;;8.97;100.00
49973;BME280;65693;49.798;10.968;2023-01-16T00:25:31;96852.81;;;8.99;100.00
49973;BME280;65693;49.798;10.968;2023-01-16T00:27:57;96842.50;;;8.97;100.00
49973;BME280;65693;49.798;10.968;2023-01-16T00:30:24;96838.00;;;8.98;100.00
49973;BME280;65693;49.798;10.968;2023-01-16T00:32:52;96830.59;;;8.94;100.00
49973;BME280;65693;49.798;10.968;2023-01-16T00:35:18;96826.09;;;8.95;100.00
49973;BME280;65693;49.798;10.968;2023-01-16T00:37:44;96821.06;;;8.93;100.00
49973;BME280;65693;49.798;10.968;2023-01-16T00:40:11;96815.78;;;8.93;100.00
49973;BME280;65693;49.798;10.968;2023-01-16T00:42:38;96815.25;;;8.91;100.00
49973;BME280;65693;49.798;10.968;2023-01-16T00:45:05;96812.59;;;8.91;100.00
49973;BME280;65693;49.798;10.968;2023-01-16T00:47:32;96812.59;;;8.91;100.00
49973;BME280;65693;49.798;10.968;2023-01-16T00:50:00;96807.28;;;8.91;100.00
49973;BME280;65693;49.798;10.968;2023-01-16T00:52:26;96809.16;;;8.91;100.00
49973;BME280;65693;49.798;10.968;2023-01-16T00:54:53;96805.22;;;8.88;100.00
49973;BME280;65693;49.798;10.968;2023-01-16T00:57:19;96804.69;;;8.86;100.00
49973;BME280;65693;49.798;10.968;2023-01-16T00:59:46;96809.97;;;8.86;100.00
49973;BME280;65693;49.798;10.968;2023-01-16T01:02:12;96805.22;;;8.88;100.00
49973;BME280;65693;49.798;10.968;2023-01-16T01:04:39;96794.06;;;8.86;100.00
49973;BME280;65693;49.798;10.968;2023-01-16T01:07:06;96790.66;;;8.86;100.00
49973;BME280;65693;49.798;10.968;2023-01-16T01:09:33;96784.03;;;8.83;100.00
49973;BME280;65693;49.798;10.968;2023-01-16T01:12:00;96785.38;;;8.81;100.00
49973;BME280;65693;49.798;10.968;2023-01-16T01:14:26;96787.25;;;8.80;100.00
49973;BME280;65693;49.798;10.968;2023-01-16T01:16:53;96790.13;;;8.84;100.00
49973;BME280;65693;49.798;10.968;2023-01-16T01:19:19;96776.88;;;8.84;100.00
49973;BME280;65693;49.798;10.968;2023-01-16T01:21:46;96767.91;;;8.80;100.00
49973;BME280;65693;49.798;10.968;2023-01-16T01:24:14;96764.47;;;8.79;100.00
49973;BME280;65693;49.798;10.968;2023-01-16T01:26:40;96765.25;;;8.80;100.00
49973;BME280;65693;49.798;10.968;2023-01-16T01:29:07;96759.94;;;8.80;100.00
49973;BME280;65693;49.798;10.968;2023-01-16T01:31:34;96750.94;;;8.81;100.00
49973;BME280;65693;49.798;10.968;2023-01-16T01:34:01;96747.22;;;8.82;100.00
49973;BME280;65693;49.798;10.968;2023-01-16T01:36:27;96756.00;;;8.77;100.00
49973;BME280;65693;49.798;10.968;2023-01-16T01:38:54;96740.63;;;8.74;100.00
49973;BME280;65693;49.798;10.968;2023-01-16T01:41:22;96721.03;;;8.75;100.00
49973;BME280;65693;49.798;10.968;2023-01-16T01:43:49;96719.41;;;8.74;100.00
49973;BME280;65693;49.798;10.968;2023-01-16T01:46:22;96717.34;;;8.71;100.00
49973;BME280;65693;49.798;10.968;2023-01-16T01:48:53;96713.09;;;8.70;100.00
49973;BME280;65693;49.798;10.968;2023-01-16T01:51:23;96707.50;;;8.71;100.00
49973;BME280;65693;49.798;10.968;2023-01-16T01:53:56;96708.03;;;8.73;100.00
49973;BME280;65693;49.798;10.968;2023-01-16T01:56:30;96702.50;;;8.70;100.00
49973;BME280;65693;49.798;10.968;2023-01-16T01:59:00;96708.59;;;8.70;100.00
49973;BME280;65693;49.798;10.968;2023-01-16T02:01:28;96700.38;;;8.72;100.00
49973;BME280;65693;49.798;10.968;2023-01-16T02:03:58;96687.69;;;8.69;100.00
49973;BME280;65693;49.798;10.968;2023-01-16T02:06:29;96681.28;;;8.70;100.00
49973;BME280;65693;49.798;10.968;2023-01-16T02:08:58;96671.25;;;8.67;100.00
49973;BME280;65693;49.798;10.968;2023-01-16T02:11:29;96666.47;;;8.69;100.00
49973;BME280;65693;49.798;10.968;2023-01-16T02:14:04;96655.38;;;8.67;100.00
49973;BME280;65693;49.798;10.968;2023-01-16T02:16:31;96652.72;;;8.67;100.00
49973;BME280;65693;49.798;10.968;2023-01-16T02:19:20;96647.94;;;8.69;100.00
49973;BME280;65693;49.798;10.968;2023-01-16T02:25:07;96644.28;;;8.65;100.00
49973;BME280;65693;49.798;10.968;2023-01-16T02:28:09;96635.50;;;8.64;100.00
49973;BME280;65693;49.798;10.968;2023-01-16T02:31:08;96625.72;;;8.65;100.00
49973;BME280;65693;49.798;10.968;2023-01-16T02:33:51;96631.03;;;8.65;100.00
49973;BME280;65693;49.798;10.968;2023-01-16T02:36:28;96611.94;;;8.63;100.00
49973;BME280;65693;49.798;10.968;2023-01-16T02:39:05;96615.13;;;8.65;100.00
49973;BME280;65693;49.798;10.968;2023-01-16T02:41:37;96609.81;;;8.65;100.00
49973;BME280;65693;49.798;10.968;2023-01-16T02:44:13;96601.63;;;8.61;100.00
49973;BME280;65693;49.798;10.968;2023-01-16T02:46:48;96592.38;;;8.58;100.00
49973;BME280;65693;49.798;10.968;2023-01-16T02:49:20;96592.91;;;8.60;100.00
49973;BME280;65693;49.798;10.968;2023-01-16T02:51:53;96589.97;;;8.62;100.00
49973;BME280;65693;49.798;10.968;2023-01-16T02:54:25;96586.03;;;8.59;100.00
49973;BME280;65693;49.798;10.968;2023-01-16T02:57:08;96586.81;;;8.60;100.00
49973;BME280;65693;49.798;10.968;2023-01-16T02:59:39;96577.00;;;8.60;100.00
49973;BME280;65693;49.798;10.968;2023-01-16T03:02:08;96562.38;;;8.63;100.00
49973;BME280;65693;49.798;10.968;2023-01-16T03:04:41;96568.81;;;8.57;100.00
49973;BME280;65693;49.798;10.968;2023-01-16T03:07:39;96559.00;;;8.57;100.00
49973;BME280;65693;49.798;10.968;2023-01-16T03:10:21;96546.75;;;8.61;100.00
49973;BME280;65693;49.798;10.968;2023-01-16T03:12:58;96548.63;;;8.61;100.00
49973;BME280;65693;49.798;10.968;2023-01-16T03:15:36;96531.44;;;8.58;100.00
49973;BME280;65693;49.798;10.968;2023-01-16T03:18:10;96534.38;;;8.57;100.00
49973;BME280;65693;49.798;10.968;2023-01-16T03:20:49;96534.59;;;8.60;100.00
49973;BME280;65693;49.798;10.968;2023-01-16T03:23:25;96527.72;;;8.59;100.00
49973;BME280;65693;49.798;10.968;2023-01-16T03:25:56;96529.38;;;8.55;100.00
49973;BME280;65693;49.798;10.968;2023-01-16T03:28:31;96524.28;;;8.59;100.00
49973;BME280;65693;49.798;10.968;2023-01-16T03:31:05;96524.56;;;8.57;100.00
49973;BME280;65693;49.798;10.968;2023-01-16T03:33:37;96515.84;;;8.57;100.00
49973;BME280;65693;49.798;10.968;2023-01-16T03:36:11;96513.19;;;8.57;100.00
49973;BME280;65693;49.798;10.968;2023-01-16T03:38:39;96502.59;;;8.57;100.00
49973;BME280;65693;49.798;10.968;2023-01-16T03:41:10;96484.31;;;8.55;100.00
49973;BME280;65693;49.798;10.968;2023-01-16T03:43:39;96480.59;;;8.56;100.00
49973;BME280;65693;49.798;10.968;2023-01-16T03:46:09;96456.75;;;8.56;100.00
49973;BME280;65693;49.798;10.968;2023-01-16T03:48:42;96458.91;;;8.54;100.00
49973;BME280;65693;49.798;10.968;2023-01-16T03:51:13;96447.22;;;8.55;100.00
49973;BME280;65693;49.798;10.968;2023-01-16T03:53:46;96451.22;;;8.53;100.00
49973;BME280;65693;49.798;10.968;2023-01-16T03:56:18;96445.16;;;8.52;100.00
49973;BME280;65693;49.798;10.968;2023-01-16T03:58:47;96444.06;;;8.53;100.00
49973;BME280;65693;49.798;10.968;2023-01-16T04:01:22;96435.34;;;8.53;100.00
49973;BME280;65693;49.798;10.968;2023-01-16T04:03:57;96434.81;;;8.51;100.00
49973;BME280;65693;49.798;10.968;2023-01-16T04:06:32;96426.09;;;8.50;100.00
49973;BME280;65693;49.798;10.968;2023-01-16T04:09:01;96422.88;;;8.53;100.00
49973;BME280;65693;49.798;10.968;2023-01-16T04:11:30;96422.88;;;8.53;100.00
49973;BME280;65693;49.798;10.968;2023-01-16T04:14:00;96421.31;;;8.52;100.00
49973;BME280;65693;49.798;10.968;2023-01-16T04:16:27;96416.28;;;8.51;100.00
49973;BME280;65693;49.798;10.968;2023-01-16T04:18:57;96416.28;;;8.51;100.00
49973;BME280;65693;49.798;10.968;2023-01-16T04:21:26;96406.47;;;8.51;100.00
49973;BME280;65693;49.798;10.968;2023-01-16T04:23:54;96402.25;;;8.50;100.00
49973;BME280;65693;49.798;10.968;2023-01-16T04:26:21;96387.94;;;8.51;100.00
49973;BME280;65693;49.798;10.968;2023-01-16T04:28:48;96385.56;;;8.50;100.00
49973;BME280;65693;49.798;10.968;2023-01-16T04:31:18;96368.09;;;8.49;100.00
49973;BME280;65693;49.798;10.968;2023-01-16T04:33:45;96363.59;;;8.49;100.00
49973;BME280;65693;49.798;10.968;2023-01-16T04:36:12;96361.03;;;8.44;100.00
49973;BME280;65693;49.798;10.968;2023-01-16T04:38:39;96361.22;;;8.48;100.00
49973;BME280;65693;49.798;10.968;2023-01-16T04:41:05;96354.09;;;8.48;100.00
49973;BME280;65693;49.798;10.968;2023-01-16T04:43:32;96345.63;;;8.46;100.00
49973;BME280;65693;49.798;10.968;2023-01-16T04:45:58;96339.25;;;8.47;100.00
49973;BME280;65693;49.798;10.968;2023-01-16T04:48:25;96338.44;;;8.47;100.00
49973;BME280;65693;49.798;10.968;2023-01-16T04:50:51;96335.53;;;8.48;100.00
49973;BME280;65693;49.798;10.968;2023-01-16T04:53:19;96321.56;;;8.42;100.00
49973;BME280;65693;49.798;10.968;2023-01-16T04:55:45;96321.28;;;8.44;100.00
49973;BME280;65693;49.798;10.968;2023-01-16T04:58:12;96322.84;;;8.45;100.00
49973;BME280;65693;49.798;10.968;2023-01-16T05:00:38;96307.53;;;8.42;100.00
49973;BME280;65693;49.798;10.968;2023-01-16T05:03:04;96304.59;;;8.43;100.00
49973;BME280;65693;49.798;10.968;2023-01-16T05:05:31;96305.09;;;8.46;100.00
49973;BME280;65693;49.798;10.968;2023-01-16T05:07:57;96287.94;;;8.43;100.00
49973;BME280;65693;49.798;10.968;2023-01-16T05:10:43;96292.72;;;8.41;100.00
49973;BME280;65693;49.798;10.968;2023-01-16T05:13:09;96286.84;;;8.44;100.00
49973;BME280;65693;49.798;10.968;2023-01-16T05:15:35;96273.09;;;8.42;100.00
49973;BME280;65693;49.798;10.968;2023-01-16T05:18:02;96264.38;;;8.41;100.00
49973;BME280;65693;49.798;10.968;2023-01-16T05:20:29;96262.81;;;8.40;100.00
49973;BME280;65693;49.798;10.968;2023-01-16T05:22:55;96261.72;;;8.41;100.00
49973;BME280;65693;49.798;10.968;2023-01-16T05:25:21;96254.06;;;8.40;100.00
49973;BME280;65693;49.798;10.968;2023-01-16T05:27:50;96255.63;;;8.41;100.00
49973;BME280;65693;49.798;10.968;2023-01-16T05:30:16;96255.63;;;8.41;100.00
49973;BME280;65693;49.798;10.968;2023-01-16T05:32:43;96244.56;;;8.39;100.00
49973;BME280;65693;49.798;10.968;2023-01-16T05:35:09;96250.63;;;8.39;100.00
49973;BME280;65693;49.798;10.968;2023-01-16T05:37:36;96245.84;;;8.41;100.00
49973;BME280;65693;49.798;10.968;2023-01-16T05:40:02;96249.56;;;8.40;100.00
49973;BME280;65693;49.798;10.968;2023-01-16T05:42:29;96239.72;;;8.41;100.00
49973;BME280;65693;49.798;10.968;2023-01-16T05:44:57;96227.59;;;8.40;100.00
49973;BME280;65693;49.798;10.968;2023-01-16T05:47:23;96228.94;;;8.37;100.00
49973;BME280;65693;49.798;10.968;2023-01-16T05:49:49;96229.72;;;8.38;100.00
49973;BME280;65693;49.798;10.968;2023-01-16T05:52:16;96221.31;;;8.36;100.00
49973;BME280;65693;49.798;10.968;2023-01-16T05:54:42;96223.66;;;8.37;100.00
49973;BME280;65693;49.798;10.968;2023-01-16T05:57:09;96215.41;;;8.39;100.00
49973;BME280;65693;49.798;10.968;2023-01-16T05:59:35;96208.53;;;8.38;100.00
49973;BME280;65693;49.798;10.968;2023-01-16T06:02:03;96207.94;;;8.41;100.00
49973;BME280;65693;49.798;10.968;2023-01-16T06:04:29;96208.53;;;8.38;100.00
49973;BME280;65693;49.798;10.968;2023-01-16T06:06:56;96183.78;;;8.28;100.00
49973;BME280;65693;49.798;10.968;2023-01-16T06:09:22;96165.75;;;8.31;100.00
49973;BME280;65693;49.798;10.968;2023-01-16T06:11:49;96154.97;;;8.27;100.00
49973;BME280;65693;49.798;10.968;2023-01-16T06:14:15;96149.97;;;8.25;100.00
49973;BME280;65693;49.798;10.968;2023-01-16T06:16:41;96140.94;;;8.26;100.00
49973;BME280;65693;49.798;10.968;2023-01-16T06:19:09;96136.72;;;8.25;100.00
49973;BME280;65693;49.798;10.968;2023-01-16T06:21:36;96142.00;;;8.25;100.00
49973;BME280;65693;49.798;10.968;2023-01-16T06:24:03;96132.19;;;8.26;100.00
49973;BME280;65693;49.798;10.968;2023-01-16T06:26:29;96124.56;;;8.24;100.00
49973;BME280;65693;49.798;10.968;2023-01-16T06:28:56;96118.69;;;8.27;100.00
49973;BME280;65693;49.798;10.968;2023-01-16T06:31:22;96117.09;;;8.26;100.00
49973;BME280;65693;49.798;10.968;2023-01-16T06:33:49;96098.06;;;8.24;100.00
49973;BME280;65693;49.798;10.968;2023-01-16T06:36:17;96091.69;;;8.25;100.00
49973;BME280;65693;49.798;10.968;2023-01-16T06:38:43;96098.06;;;8.24;100.00
49973;BME280;65693;49.798;10.968;2023-01-16T06:41:10;96088.56;;;8.23;100.00
49973;BME280;65693;49.798;10.968;2023-01-16T06:43:36;96085.94;;;8.23;100.00
49973;BME280;65693;49.798;10.968;2023-01-16T06:46:03;96080.13;;;8.21;100.00
49973;BME280;65693;49.798;10.968;2023-01-16T06:48:29;96071.41;;;8.21;100.00
49973;BME280;65693;49.798;10.968;2023-01-16T06:50:57;96067.66;;;8.22;100.00
49973;BME280;65693;49.798;10.968;2023-01-16T06:53:25;96016.00;;;7.97;100.00
49973;BME280;65693;49.798;10.968;2023-01-16T06:55:52;96003.44;;;8.02;100.00
49973;BME280;65693;49.798;10.968;2023-01-16T06:58:18;95999.81;;;7.98;100.00
49973;BME280;65693;49.798;10.968;2023-01-16T07:00:46;95985.31;;;7.96;100.00
49973;BME280;65693;49.798;10.968;2023-01-16T07:03:16;95980.59;;;7.92;100.00
49973;BME280;65693;49.798;10.968;2023-01-16T07:05:43;95972.66;;;7.92;100.00
49973;BME280;65693;49.798;10.968;2023-01-16T07:08:10;95972.97;;;7.91;100.00
49973;BME280;65693;49.798;10.968;2023-01-16T07:10:38;95972.16;;;7.90;100.00
49973;BME280;65693;49.798;10.968;2023-01-16T07:13:05;95966.38;;;7.88;100.00
49973;BME280;65693;49.798;10.968;2023-01-16T07:15:32;95956.56;;;7.89;100.00
49973;BME280;65693;49.798;10.968;2023-01-16T07:18:16;95964.50;;;7.89;100.00
49973;BME280;65693;49.798;10.968;2023-01-16T07:21:02;95955.03;;;7.88;100.00
49973;BME280;65693;49.798;10.968;2023-01-16T07:23:49;95956.56;;;7.89;100.00
49973;BME280;65693;49.798;10.968;2023-01-16T07:26:18;95946.28;;;7.87;100.00
49973;BME280;65693;49.798;10.968;2023-01-16T07:28:46;95943.94;;;7.86;100.00
49973;BME280;65693;49.798;10.968;2023-01-16T07:31:14;95937.88;;;7.85;100.00
49973;BME280;65693;49.798;10.968;2023-01-16T07:33:40;95931.97;;;7.88;100.00
49973;BME280;65693;49.798;10.968;2023-01-16T07:36:07;95930.41;;;7.87;100.00
49973;BME280;65693;49.798;10.968;2023-01-16T07:38:33;95914.53;;;7.87;100.00
49973;BME280;65693;49.798;10.968;2023-01-16T07:41:00;95914.53;;;7.87;100.00
49973;BME280;65693;49.798;10.968;2023-01-16T07:43:28;95908.47;;;7.87;100.00
49973;BME280;65693;49.798;10.968;2023-01-16T07:45:54;95902.38;;;7.86;100.00
49973;BME280;65693;49.798;10.968;2023-01-16T07:48:21;95899.72;;;7.86;100.00
49973;BME280;65693;49.798;10.968;2023-01-16T07:50:50;95898.66;;;7.87;100.00
49973;BME280;65693;49.798;10.968;2023-01-16T07:53:17;95884.16;;;7.85;100.00
49973;BME280;65693;49.798;10.968;2023-01-16T07:55:47;95888.66;;;7.84;100.00
49973;BME280;65693;49.798;10.968;2023-01-16T07:58:13;95887.09;;;7.83;100.00
49973;BME280;65693;49.798;10.968;2023-01-16T08:00:41;95884.75;;;7.82;100.00
49973;BME280;65693;49.798;10.968;2023-01-16T08:03:08;95880.22;;;7.82;100.00
49973;BME280;65693;49.798;10.968;2023-01-16T08:05:34;95878.69;;;7.81;100.00
49973;BME280;65693;49.798;10.968;2023-01-16T08:08:01;95876.03;;;7.81;100.00
49973;BME280;65693;49.798;10.968;2023-01-16T08:10:27;95875.22;;;7.81;100.00
49973;BME280;65693;49.798;10.968;2023-01-16T08:12:54;95883.97;;;7.81;100.00
49973;BME280;65693;49.798;10.968;2023-01-16T08:15:20;95877.88;;;7.81;100.00
49973;BME280;65693;49.798;10.968;2023-01-16T08:17:48;95874.47;;;7.80;100.00
49973;BME280;65693;49.798;10.968;2023-01-16T08:20:15;95873.38;;;7.81;100.00
49973;BME280;65693;49.798;10.968;2023-01-16T08:22:42;95863.88;;;7.80;100.00
49973;BME280;65693;49.798;10.968;2023-01-16T08:25:09;95868.88;;;7.82;100.00
49973;BME280;65693;49.798;10.968;2023-01-16T08:27:36;95858.59;;;7.80;100.00
49973;BME280;65693;49.798;10.968;2023-01-16T08:30:03;95854.88;;;7.81;100.00
49973;BME280;65693;49.798;10.968;2023-01-16T08:32:29;95840.84;;;7.81;100.00
49973;BME280;65693;49.798;10.968;2023-01-16T08:34:57;95839.00;;;7.81;100.00
49973;BME280;65693;49.798;10.968;2023-01-16T08:37:23;95833.19;;;7.79;100.00
49973;BME280;65693;49.798;10.968;2023-01-16T08:39:50;95823.41;;;7.80;100.00
49973;BME280;65693;49.798;10.968;2023-01-16T08:42:16;95829.47;;;7.80;100.00
49973;BME280;65693;49.798;10.968;2023-01-16T08:45:00;95831.34;;;7.80;100.00
49973;BME280;65693;49.798;10.968;2023-01-16T08:47:44;95820.47;;;7.81;100.00
49973;BME280;65693;49.798;10.968;2023-01-16T08:50:30;95808.78;;;7.82;100.00
49973;BME280;65693;49.798;10.968;2023-01-16T08:53:16;95808.78;;;7.82;100.00
49973;BME280;65693;49.798;10.968;2023-01-16T08:55:43;95799.00;;;7.83;100.00
49973;BME280;65693;49.798;10.968;2023-01-16T08:58:09;95782.81;;;7.84;100.00
49973;BME280;65693;49.798;10.968;2023-01-16T09:00:36;95765.38;;;7.83;100.00
49973;BME280;65693;49.798;10.968;2023-01-16T09:03:02;95765.88;;;7.85;100.00
49973;BME280;65693;49.798;10.968;2023-01-16T09:05:30;95754.78;;;7.83;100.00
49973;BME280;65693;49.798;10.968;2023-01-16T09:07:56;95751.38;;;7.83;100.00
49973;BME280;65693;49.798;10.968;2023-01-16T09:10:23;95747.16;;;7.82;100.00
49973;BME280;65693;49.798;10.968;2023-01-16T09:12:50;95760.06;;;7.83;100.00
49973;BME280;65693;49.798;10.968;2023-01-16T09:15:33;95757.44;;;7.83;100.00
49973;BME280;65693;49.798;10.968;2023-01-16T09:18:00;95754.78;;;7.83;100.00
49973;BME280;65693;49.798;10.968;2023-01-16T09:20:26;95747.91;;;7.82;100.00
49973;BME280;65693;49.798;10.968;2023-01-16T09:22:58;95748.72;;;7.83;100.00
49973;BME280;65693;49.798;10.968;2023-01-16T09:25:24;95741.56;;;7.83;100.00
49973;BME280;65693;49.798;10.968;2023-01-16T09:27:51;95731.47;;;7.85;100.00
49973;BME280;65693;49.798;10.968;2023-01-16T09:30:17;95732.53;;;7.84;100.00
49973;BME280;65693;49.798;10.968;2023-01-16T09:32:44;95726.19;;;7.85;100.00
49973;BME280;65693;49.798;10.968;2023-01-16T09:35:11;95724.59;;;7.84;100.00
49973;BME280;65693;49.798;10.968;2023-01-16T09:37:37;95725.06;;;7.86;100.00
49973;BME280;65693;49.798;10.968;2023-01-16T09:40:10;95723.53;;;7.85;100.00
49973;BME280;65693;49.798;10.968;2023-01-16T09:42:49;95724.31;;;7.86;100.00
49973;BME280;65693;49.798;10.968;2023-01-16T09:45:36;95724.00;;;7.87;100.00
49973;BME280;65693;49.798;10.968;2023-01-16T09:48:09;95717.13;;;7.86;100.00
49973;BME280;65693;49.798;10.968;2023-01-16T09:50:39;95717.94;;;7.87;100.00
49973;BME280;65693;49.798;10.968;2023-01-16T09:53:13;95713.41;;;7.87;100.00
49973;BME280;65693;49.798;10.968;2023-01-16T09:56:07;95727.44;;;7.88;100.00
49973;BME280;65693;49.798;10.968;2023-01-16T09:58:58;95720.28;;;7.88;100.00
49973;BME280;65693;49.798;10.968;2023-01-16T10:01:29;95702.53;;;7.89;100.00
49973;BME280;65693;49.798;10.968;2023-01-16T10:04:09;95690.84;;;7.90;100.00
49973;BME280;65693;49.798;10.968;2023-01-16T10:06:42;95685.09;;;7.88;100.00
49973;BME280;65693;49.798;10.968;2023-01-16T10:09:16;95680.88;;;7.87;100.00
49973;BME280;65693;49.798;10.968;2023-01-16T10:11:51;95667.66;;;7.87;100.00
49973;BME280;65693;49.798;10.968;2023-01-16T10:14:35;95663.94;;;7.88;100.00
49973;BME280;65693;49.798;10.968;2023-01-16T10:17:14;95646.47;;;7.87;100.00
49973;BME280;65693;49.798;10.968;2023-01-16T10:19:55;95639.19;;;7.92;100.00
49973;BME280;65693;49.798;10.968;2023-01-16T10:22:34;95627.66;;;7.88;100.00
49973;BME280;65693;49.798;10.968;2023-01-16T10:25:15;95615.50;;;7.87;100.00
49973;BME280;65693;49.798;10.968;2023-01-16T10:27:52;95619.72;;;7.88;100.00
49973;BME280;65693;49.798;10.968;2023-01-16T10:30:25;95617.53;;;7.90;100.00
49973;BME280;65693;49.798;10.968;2023-01-16T10:32:57;95620.97;;;7.91;100.00
49973;BME280;65693;49.798;10.968;2023-01-16T10:35:29;95625.47;;;7.90;100.00
49973;BME280;65693;49.798;10.968;2023-01-16T10:38:06;95614.59;;;7.92;100.00
49973;BME280;65693;49.798;10.968;2023-01-16T10:40:38;95613.50;;;7.93;100.00
49973;BME280;65693;49.798;10.968;2023-01-16T10:43:10;95597.31;;;7.94;100.00
49973;BME280;65693;49.798;10.968;2023-01-16T10:45:59;95580.66;;;7.94;100.00
49973;BME280;65693;49.798;10.968;2023-01-16T10:48:48;95566.66;;;7.93;100.00
49973;BME280;65693;49.798;10.968;2023-01-16T10:51:33;95555.78;;;7.95;100.00
49973;BME280;65693;49.798;10.968;2023-01-16T10:54:00;95566.34;;;7.95;100.00
49973;BME280;65693;49.798;10.968;2023-01-16T10:56:27;95548.16;;;7.93;100.00
49973;BME280;65693;49.798;10.968;2023-01-16T10:58:56;95547.34;;;7.93;100.00
49973;BME280;65693;49.798;10.968;2023-01-16T11:01:24;95553.44;;;7.93;100.00
49973;BME280;65693;49.798;10.968;2023-01-16T11:03:53;95541.28;;;7.92;100.00
49973;BME280;65693;49.798;10.968;2023-01-16T11:06:21;95542.84;;;7.93;100.00
49973;BME280;65693;49.798;10.968;2023-01-16T11:08:49;95535.69;;;7.94;100.00
49973;BME280;65693;49.798;10.968;2023-01-16T11:11:18;95516.38;;;7.93;100.00
49973;BME280;65693;49.798;10.968;2023-01-16T11:14:11;95516.38;;;7.93;100.00
49973;BME280;65693;49.798;10.968;2023-01-16T11:16:56;95496.28;;;7.92;100.00
49973;BME280;65693;49.798;10.968;2023-01-16T11:19:42;95473.25;;;7.93;100.00
49973;BME280;65693;49.798;10.968;2023-01-16T11:22:21;95465.00;;;7.94;100.00
49973;BME280;65693;49.798;10.968;2023-01-16T11:24:53;95449.75;;;7.91;100.00
49973;BME280;65693;49.798;10.968;2023-01-16T11:27:23;95448.66;;;7.92;100.00
49973;BME280;65693;49.798;10.968;2023-01-16T11:29:54;95452.38;;;7.91;100.00
49973;BME280;65693;49.798;10.968;2023-01-16T11:32:23;95453.63;;;7.94;100.00
49973;BME280;65693;49.798;10.968;2023-01-16T11:34:54;95455.53;;;7.93;100.00
49973;BME280;65693;49.798;10.968;2023-01-16T11:37:22;95446.47;;;7.94;100.00
49973;BME280;65693;49.798;10.968;2023-01-16T11:39:53;95453.31;;;7.96;100.00
49973;BME280;65693;49.798;10.968;2023-01-16T11:42:20;95443.81;;;7.94;100.00
49973;BME280;65693;49.798;10.968;2023-01-16T11:45:13;95439.34;;;7.95;100.00
49973;BME280;65693;49.798;10.968;2023-01-16T11:48:00;95429.50;;;7.96;100.00
49973;BME280;65693;49.798;10.968;2023-01-16T11:50:49;95432.97;;;7.96;100.00
49973;BME280;65693;49.798;10.968;2023-01-16T11:53:16;95429.50;;;7.96;100.00
49973;BME280;65693;49.798;10.968;2023-01-16T11:55:59;95414.72;;;7.94;100.00
49973;BME280;65693;49.798;10.968;2023-01-16T11:58:35;95423.13;;;7.97;100.00
49973;BME280;65693;49.798;10.968;2023-01-16T12:01:13;95415.97;;;7.97;100.00
49973;BME280;65693;49.798;10.968;2023-01-16T12:03:50;95400.41;;;7.96;100.00
49973;BME280;65693;49.798;10.968;2023-01-16T12:06:38;95394.03;;;7.97;100.00
49973;BME280;65693;49.798;10.968;2023-01-16T12:09:26;95380.03;;;7.96;100.00
49973;BME280;65693;49.798;10.968;2023-01-16T12:12:10;95374.72;;;7.96;100.00
49973;BME280;65693;49.798;10.968;2023-01-16T12:14:57;95363.34;;;7.96;100.00
49973;BME280;65693;49.798;10.968;2023-01-16T12:17:41;95356.22;;;7.96;100.00
49973;BME280;65693;49.798;10.968;2023-01-16T12:20:18;95362.28;;;7.97;100.00
49973;BME280;65693;49.798;10.968;2023-01-16T12:23:20;95356.97;;;7.97;100.00
49973;BME280;65693;49.798;10.968;2023-01-16T12:25:57;95362.28;;;7.97;100.00
49973;BME280;65693;49.798;10.968;2023-01-16T12:28:33;95370.22;;;7.97;100.00
49973;BME280;65693;49.798;10.968;2023-01-16T12:31:24;95359.94;;;7.95;100.00
49973;BME280;65693;49.798;10.968;2023-01-16T12:34:18;95367.56;;;7.97;100.00
49973;BME280;65693;49.798;10.968;2023-01-16T12:36:59;95373.63;;;7.97;100.00
49973;BME280;65693;49.798;10.968;2023-01-16T12:39:35;95366.78;;;7.96;100.00
49973;BME280;65693;49.798;10.968;2023-01-16T12:42:13;95368.34;;;7.97;100.00
49973;BME280;65693;49.798;10.968;2023-01-16T12:45:10;95368.66;;;7.96;100.00
49973;BME280;65693;49.798;10.968;2023-01-16T12:47:53;95362.28;;;7.97;100.00
49973;BME280;65693;49.798;10.968;2023-01-16T12:50:37;95353.25;;;7.98;100.00
49973;BME280;65693;49.798;10.968;2023-01-16T12:53:27;95357.75;;;7.97;100.00
49973;BME280;65693;49.798;10.968;2023-01-16T12:55:58;95347.16;;;7.97;100.00
49973;BME280;65693;49.798;10.968;2023-01-16T12:58:32;95355.09;;;7.97;100.00
49973;BME280;65693;49.798;10.968;2023-01-16T13:01:09;95347.16;;;7.97;100.00
49973;BME280;65693;49.798;10.968;2023-01-16T13:03:39;95357.44;;;7.99;100.00
49973;BME280;65693;49.798;10.968;2023-01-16T13:06:11;95354.78;;;7.99;100.00
49973;BME280;65693;49.798;10.968;2023-01-16T13:08:42;95343.44;;;7.98;100.00
49973;BME280;65693;49.798;10.968;2023-01-16T13:11:14;95347.16;;;7.97;100.00
49973;BME280;65693;49.798;10.968;2023-01-16T13:14:03;95345.31;;;7.98;100.00
49973;BME280;65693;49.798;10.968;2023-01-16T13:16:34;95330.50;;;7.97;100.00